sensor_id;sensor_type;location;lat;lon;timestamp;temperature;humidity
3850;DHT22;1940;51.052;13.678;2023-06-14T00:00:52;14.10;75.40
3850;DHT22;1940;51.052;13.678;2023-06-14T00:03:18;14.00;75.90
3850;DHT22;1940;51.052;13.678;2023-06-14T00:05:47;14.00;75.80
3850;DHT22;1940;51.052;13.678;2023-06-14T00:08:14;13.90;76.10
3850;DHT22;1940;51.052;13.678;2023-06-14T00:10:40;13.80;76.60
3850;DHT22;1940;51.052;13.678;2023-06-14T00:13:08;13.80;76.90
3850;DHT22;1940;51.052;13.678;2023-06-14T00:15:34;13.80;77.10
3850;DHT22;1940;51.052;13.678;2023-06-14T00:18:00;13.70;77.00
3850;DHT22;1940;51.052;13.678;2023-06-14T00:20:30;13.70;77.30
3850;DHT22;1940;51.052;13.678;2023-06-14T00:22:58;13.70;77.30
3850;DHT22;1940;51.052;13.678;2023-06-14T00:25:23;13.70;77.30
3850;DHT22;1940;51.052;13.678;2023-06-14T00:27:50;13.70;77.60
3850;DHT22;1940;51.052;13.678;2023-06-14T00:30:16;13.50;78.00
3850;DHT22;1940;51.052;13.678;2023-06-14T00:32:41;13.50;78.10
3850;DHT22;1940;51.052;13.678;2023-06-14T00:35:08;13.50;78.40
3850;DHT22;1940;51.052;13.678;2023-06-14T00:37:34;13.40;78.50
3850;DHT22;1940;51.052;13.678;2023-06-14T00:39:59;13.40;78.60
3850;DHT22;1940;51.052;13.678;2023-06-14T00:42:26;13.40;78.70
3850;DHT22;1940;51.052;13.678;2023-06-14T00:44:51;13.30;79.10
3850;DHT22;1940;51.052;13.678;2023-06-14T00:47:17;13.30;79.20
3850;DHT22;1940;51.052;13.678;2023-06-14T00:49:44;13.30;79.30
3850;DHT22;1940;51.052;13.678;2023-06-14T00:52:10;13.30;79.60
3850;DHT22;1940;51.052;13.678;2023-06-14T00:54:39;13.20;79.80
3850;DHT22;1940;51.052;13.678;2023-06-14T00:57:05;13.10;80.00
3850;DHT22;1940;51.052;13.678;2023-06-14T00:59:31;13.00;80.50
3850;DHT22;1940;51.052;13.678;2023-06-14T01:01:57;13.00;80.80
3850;DHT22;1940;51.052;13.678;2023-06-14T01:04:22;13.00;80.60
3850;DHT22;1940;51.052;13.678;2023-06-14T01:07:12;13.10;80.70
3850;DHT22;1940;51.052;13.678;2023-06-14T01:10:06;13.10;80.60
3850;DHT22;1940;51.052;13.678;2023-06-14T01:12:59;13.20;80.50
3850;DHT22;1940;51.052;13.678;2023-06-14T01:15:28;13.20;80.40
3850;DHT22;1940;51.052;13.678;2023-06-14T01:17:55;13.30;80.50
3850;DHT22;1940;51.052;13.678;2023-06-14T01:20:29;13.20;80.70
3850;DHT22;1940;51.052;13.678;2023-06-14T01:22:55;13.10;81.00
3850;DHT22;1940;51.052;13.678;2023-06-14T01:25:21;13.10;81.10
3850;DHT22;1940;51.052;13.678;2023-06-14T01:27:53;13.10;80.90
3850;DHT22;1940;51.052;13.678;2023-06-14T01:30:21;13.10;80.90
3850;DHT22;1940;51.052;13.678;2023-06-14T01:32:49;13.10;81.10
3850;DHT22;1940;51.052;13.678;2023-06-14T01:35:16;13.00;81.10
3850;DHT22;1940;51.052;13.678;2023-06-14T01:37:43;13.00;81.30
3850;DHT22;1940;51.052;13.678;2023-06-14T01:40:09;12.90;81.60
3850;DHT22;1940;51.052;13.678;2023-06-14T01:42:37;12.90;81.60
3850;DHT22;1940;51.052;13.678;2023-06-14T01:45:05;12.80;81.70
3850;DHT22;1940;51.052;13.678;2023-06-14T01:47:31;12.80;81.70
3850;DHT22;1940;51.052;13.678;2023-06-14T01:49:57;12.90;81.50
3850;DHT22;1940;51.052;13.678;2023-06-14T01:52:22;12.90;81.70
3850;DHT22;1940;51.052;13.678;2023-06-14T01:54:50;12.90;81.50
3850;DHT22;1940;51.052;13.678;2023-06-14T01:57:15;12.80;81.70
3850;DHT22;1940;51.052;13.678;2023-06-14T01:59:41;12.80;81.50
3850;DHT22;1940;51.052;13.678;2023-06-14T02:02:06;12.90;81.40
3850;DHT22;1940;51.052;13.678;2023-06-14T02:04:32;12.80;81.40
3850;DHT22;1940;51.052;13.678;2023-06-14T02:06:58;12.90;81.20
3850;DHT22;1940;51.052;13.678;2023-06-14T02:09:24;12.90;81.40
3850;DHT22;1940;51.052;13.678;2023-06-14T02:11:49;12.80;81.50
3850;DHT22;1940;51.052;13.678;2023-06-14T02:14:15;12.90;81.50
3850;DHT22;1940;51.052;13.678;2023-06-14T02:16:42;12.80;81.70
3850;DHT22;1940;51.052;13.678;2023-06-14T02:19:17;12.80;81.70
3850;DHT22;1940;51.052;13.678;2023-06-14T02:21:43;12.80;81.60
3850;DHT22;1940;51.052;13.678;2023-06-14T02:24:09;12.80;81.50
3850;DHT22;1940;51.052;13.678;2023-06-14T02:26:35;12.70;82.00
3850;DHT22;1940;51.052;13.678;2023-06-14T02:29:00;12.70;82.00
3850;DHT22;1940;51.052;13.678;2023-06-14T02:31:26;12.70;82.30
3850;DHT22;1940;51.052;13.678;2023-06-14T02:33:52;12.60;82.40
3850;DHT22;1940;51.052;13.678;2023-06-14T02:36:18;12.60;82.30
3850;DHT22;1940;51.052;13.678;2023-06-14T02:38:43;12.60;82.30
3850;DHT22;1940;51.052;13.678;2023-06-14T02:41:09;12.60;82.40
3850;DHT22;1940;51.052;13.678;2023-06-14T02:43:34;12.60;82.50
3850;DHT22;1940;51.052;13.678;2023-06-14T02:46:01;12.60;82.60
3850;DHT22;1940;51.052;13.678;2023-06-14T02:48:27;12.50;83.10
3850;DHT22;1940;51.052;13.678;2023-06-14T02:50:53;12.40;83.40
3850;DHT22;1940;51.052;13.678;2023-06-14T02:53:18;12.20;83.90
3850;DHT22;1940;51.052;13.678;2023-06-14T02:55:44;12.10;84.50
3850;DHT22;1940;51.052;13.678;2023-06-14T02:58:09;12.00;84.80
3850;DHT22;1940;51.052;13.678;2023-06-14T03:00:35;11.90;85.10
3850;DHT22;1940;51.052;13.678;2023-06-14T03:03:01;12.00;85.20
3850;DHT22;1940;51.052;13.678;2023-06-14T03:05:27;12.10;85.10
3850;DHT22;1940;51.052;13.678;2023-06-14T03:07:53;12.20;84.90
3850;DHT22;1940;51.052;13.678;2023-06-14T03:10:19;12.30;84.50
3850;DHT22;1940;51.052;13.678;2023-06-14T03:12:46;12.50;84.20
3850;DHT22;1940;51.052;13.678;2023-06-14T03:15:12;12.60;83.80
3850;DHT22;1940;51.052;13.678;2023-06-14T03:17:38;12.60;83.30
3850;DHT22;1940;51.052;13.678;2023-06-14T03:20:04;12.70;83.60
3850;DHT22;1940;51.052;13.678;2023-06-14T03:22:32;12.80;83.10
3850;DHT22;1940;51.052;13.678;2023-06-14T03:24:59;12.70;83.00
3850;DHT22;1940;51.052;13.678;2023-06-14T03:27:25;12.80;83.00
3850;DHT22;1940;51.052;13.678;2023-06-14T03:29:51;13.10;82.40
3850;DHT22;1940;51.052;13.678;2023-06-14T03:32:16;13.20;81.80
3850;DHT22;1940;51.052;13.678;2023-06-14T03:34:42;13.10;81.50
3850;DHT22;1940;51.052;13.678;2023-06-14T03:37:07;13.20;81.40
3850;DHT22;1940;51.052;13.678;2023-06-14T03:39:33;13.30;80.70
3850;DHT22;1940;51.052;13.678;2023-06-14T03:41:58;13.30;80.60
3850;DHT22;1940;51.052;13.678;2023-06-14T03:44:26;13.10;80.90
3850;DHT22;1940;51.052;13.678;2023-06-14T03:46:52;12.90;82.10
3850;DHT22;1940;51.052;13.678;2023-06-14T03:49:17;13.00;82.10
3850;DHT22;1940;51.052;13.678;2023-06-14T03:51:43;13.40;81.00
3850;DHT22;1940;51.052;13.678;2023-06-14T03:54:08;13.90;80.00
3850;DHT22;1940;51.052;13.678;2023-06-14T03:56:34;14.60;78.40
3850;DHT22;1940;51.052;13.678;2023-06-14T03:59:01;15.20;76.50
3850;DHT22;1940;51.052;13.678;2023-06-14T04:01:27;15.60;74.60
3850;DHT22;1940;51.052;13.678;2023-06-14T04:03:56;15.80;73.90
3850;DHT22;1940;51.052;13.678;2023-06-14T04:06:22;16.20;73.00
3850;DHT22;1940;51.052;13.678;2023-06-14T04:08:50;16.60;71.90
3850;DHT22;1940;51.052;13.678;2023-06-14T04:11:16;16.90;70.70
3850;DHT22;1940;51.052;13.678;2023-06-14T04:13:41;17.10;70.20
3850;DHT22;1940;51.052;13.678;2023-06-14T04:16:07;17.10;69.70
3850;DHT22;1940;51.052;13.678;2023-06-14T04:18:32;17.10;70.10
3850;DHT22;1940;51.052;13.678;2023-06-14T04:20:58;17.70;68.70
3850;DHT22;1940;51.052;13.678;2023-06-14T04:23:24;17.80;67.70
3850;DHT22;1940;51.052;13.678;2023-06-14T04:25:50;18.10;67.80
3850;DHT22;1940;51.052;13.678;2023-06-14T04:28:15;18.10;67.40
3850;DHT22;1940;51.052;13.678;2023-06-14T04:30:42;18.30;66.70
3850;DHT22;1940;51.052;13.678;2023-06-14T04:33:08;18.10;66.90
3850;DHT22;1940;51.052;13.678;2023-06-14T04:35:36;18.80;65.70
3850;DHT22;1940;51.052;13.678;2023-06-14T04:38:02;19.10;64.70
3850;DHT22;1940;51.052;13.678;2023-06-14T04:40:30;19.60;63.70
3850;DHT22;1940;51.052;13.678;2023-06-14T04:42:56;19.90;63.10
3850;DHT22;1940;51.052;13.678;2023-06-14T04:45:23;20.20;62.80
3850;DHT22;1940;51.052;13.678;2023-06-14T04:47:49;20.00;62.80
3850;DHT22;1940;51.052;13.678;2023-06-14T04:50:16;19.60;63.50
3850;DHT22;1940;51.052;13.678;2023-06-14T04:52:43;19.50;63.70
3850;DHT22;1940;51.052;13.678;2023-06-14T04:55:09;19.70;63.20
3850;DHT22;1940;51.052;13.678;2023-06-14T04:57:35;19.60;63.30
3850;DHT22;1940;51.052;13.678;2023-06-14T05:00:00;19.30;63.70
3850;DHT22;1940;51.052;13.678;2023-06-14T05:02:29;19.20;63.60
3850;DHT22;1940;51.052;13.678;2023-06-14T05:04:55;19.40;63.60
3850;DHT22;1940;51.052;13.678;2023-06-14T05:07:22;19.10;64.10
3850;DHT22;1940;51.052;13.678;2023-06-14T05:09:49;19.40;63.00
3850;DHT22;1940;51.052;13.678;2023-06-14T05:12:14;19.20;63.70
3850;DHT22;1940;51.052;13.678;2023-06-14T05:14:43;19.00;64.20
3850;DHT22;1940;51.052;13.678;2023-06-14T05:17:09;19.00;64.60
3850;DHT22;1940;51.052;13.678;2023-06-14T05:19:34;19.20;63.80
3850;DHT22;1940;51.052;13.678;2023-06-14T05:22:00;19.00;64.20
3850;DHT22;1940;51.052;13.678;2023-06-14T05:24:26;18.90;64.50
3850;DHT22;1940;51.052;13.678;2023-06-14T05:26:52;19.20;64.50
3850;DHT22;1940;51.052;13.678;2023-06-14T05:29:17;19.10;63.70
3850;DHT22;1940;51.052;13.678;2023-06-14T05:31:43;19.00;64.50
3850;DHT22;1940;51.052;13.678;2023-06-14T05:34:08;19.40;63.80
3850;DHT22;1940;51.052;13.678;2023-06-14T05:36:34;19.30;64.00
3850;DHT22;1940;51.052;13.678;2023-06-14T05:39:02;19.60;63.50
3850;DHT22;1940;51.052;13.678;2023-06-14T05:41:28;20.00;62.00
3850;DHT22;1940;51.052;13.678;2023-06-14T05:43:55;20.00;62.30
3850;DHT22;1940;51.052;13.678;2023-06-14T05:46:21;19.40;62.90
3850;DHT22;1940;51.052;13.678;2023-06-14T05:48:54;18.50;64.80
3850;DHT22;1940;51.052;13.678;2023-06-14T05:51:20;17.90;66.50
3850;DHT22;1940;51.052;13.678;2023-06-14T05:53:47;17.70;67.50
3850;DHT22;1940;51.052;13.678;2023-06-14T05:56:13;17.30;68.00
3850;DHT22;1940;51.052;13.678;2023-06-14T05:58:39;17.30;68.50
3850;DHT22;1940;51.052;13.678;2023-06-14T06:01:04;17.30;68.90
3850;DHT22;1940;51.052;13.678;2023-06-14T06:03:30;17.40;68.30
3850;DHT22;1940;51.052;13.678;2023-06-14T06:05:56;17.70;68.20
3850;DHT22;1940;51.052;13.678;2023-06-14T06:08:21;18.70;66.40
3850;DHT22;1940;51.052;13.678;2023-06-14T06:10:47;20.10;62.70
3850;DHT22;1940;51.052;13.678;2023-06-14T06:13:12;21.30;60.70
3850;DHT22;1940;51.052;13.678;2023-06-14T06:15:38;21.90;58.90
3850;DHT22;1940;51.052;13.678;2023-06-14T06:18:03;22.40;58.00
3850;DHT22;1940;51.052;13.678;2023-06-14T06:20:29;22.40;57.20
3850;DHT22;1940;51.052;13.678;2023-06-14T06:23:00;23.00;56.70
3850;DHT22;1940;51.052;13.678;2023-06-14T06:25:26;23.20;56.10
3850;DHT22;1940;51.052;13.678;2023-06-14T06:27:53;22.40;57.90
3850;DHT22;1940;51.052;13.678;2023-06-14T06:30:19;23.20;56.70
3850;DHT22;1940;51.052;13.678;2023-06-14T06:32:44;23.30;55.70
3850;DHT22;1940;51.052;13.678;2023-06-14T06:35:11;22.60;57.70
3850;DHT22;1940;51.052;13.678;2023-06-14T06:37:37;22.20;57.50
3850;DHT22;1940;51.052;13.678;2023-06-14T06:40:03;21.60;58.60
3850;DHT22;1940;51.052;13.678;2023-06-14T06:42:34;21.90;58.60
3850;DHT22;1940;51.052;13.678;2023-06-14T06:44:59;22.90;56.90
3850;DHT22;1940;51.052;13.678;2023-06-14T06:47:25;23.60;55.30
3850;DHT22;1940;51.052;13.678;2023-06-14T06:49:51;24.00;55.40
3850;DHT22;1940;51.052;13.678;2023-06-14T06:52:16;24.40;54.30
3850;DHT22;1940;51.052;13.678;2023-06-14T06:54:42;24.40;54.40
3850;DHT22;1940;51.052;13.678;2023-06-14T06:57:07;24.40;54.20
3850;DHT22;1940;51.052;13.678;2023-06-14T06:59:33;24.70;53.60
3850;DHT22;1940;51.052;13.678;2023-06-14T07:01:59;24.80;53.30
3850;DHT22;1940;51.052;13.678;2023-06-14T07:04:25;25.30;52.40
3850;DHT22;1940;51.052;13.678;2023-06-14T07:06:50;24.70;53.30
3850;DHT22;1940;51.052;13.678;2023-06-14T07:09:17;24.40;54.70
3850;DHT22;1940;51.052;13.678;2023-06-14T07:11:45;24.50;53.50
3850;DHT22;1940;51.052;13.678;2023-06-14T07:14:10;24.60;53.10
3850;DHT22;1940;51.052;13.678;2023-06-14T07:16:37;24.80;53.30
3850;DHT22;1940;51.052;13.678;2023-06-14T07:19:03;24.90;53.50
3850;DHT22;1940;51.052;13.678;2023-06-14T07:21:29;25.20;53.30
3850;DHT22;1940;51.052;13.678;2023-06-14T07:23:54;25.80;51.80
3850;DHT22;1940;51.052;13.678;2023-06-14T07:26:20;26.40;50.50
3850;DHT22;1940;51.052;13.678;2023-06-14T07:28:46;26.50;50.70
3850;DHT22;1940;51.052;13.678;2023-06-14T07:31:13;26.30;50.60
3850;DHT22;1940;51.052;13.678;2023-06-14T07:33:39;26.60;50.60
3850;DHT22;1940;51.052;13.678;2023-06-14T07:36:05;26.50;50.40
3850;DHT22;1940;51.052;13.678;2023-06-14T07:38:30;27.00;49.30
3850;DHT22;1940;51.052;13.678;2023-06-14T07:40:56;27.20;48.90
3850;DHT22;1940;51.052;13.678;2023-06-14T07:43:21;27.40;49.00
3850;DHT22;1940;51.052;13.678;2023-06-14T07:45:47;27.10;49.70
3850;DHT22;1940;51.052;13.678;2023-06-14T07:48:12;26.60;50.70
3850;DHT22;1940;51.052;13.678;2023-06-14T07:50:38;26.30;50.40
3850;DHT22;1940;51.052;13.678;2023-06-14T07:53:03;25.70;51.40
3850;DHT22;1940;51.052;13.678;2023-06-14T07:55:29;25.30;51.50
3850;DHT22;1940;51.052;13.678;2023-06-14T07:57:54;25.50;50.50
3850;DHT22;1940;51.052;13.678;2023-06-14T08:00:20;26.10;50.50
3850;DHT22;1940;51.052;13.678;2023-06-14T08:02:46;27.10;48.60
3850;DHT22;1940;51.052;13.678;2023-06-14T08:05:12;27.20;48.80
3850;DHT22;1940;51.052;13.678;2023-06-14T08:07:39;27.00;47.90
3850;DHT22;1940;51.052;13.678;2023-06-14T08:10:05;27.00;46.40
3850;DHT22;1940;51.052;13.678;2023-06-14T08:12:32;26.60;47.20
3850;DHT22;1940;51.052;13.678;2023-06-14T08:14:57;26.70;47.50
3850;DHT22;1940;51.052;13.678;2023-06-14T08:17:30;26.70;46.40
3850;DHT22;1940;51.052;13.678;2023-06-14T08:19:57;26.60;47.10
3850;DHT22;1940;51.052;13.678;2023-06-14T08:22:23;26.20;47.70
3850;DHT22;1940;51.052;13.678;2023-06-14T08:24:50;25.70;48.70
3850;DHT22;1940;51.052;13.678;2023-06-14T08:27:15;26.70;47.20
3850;DHT22;1940;51.052;13.678;2023-06-14T08:29:41;25.90;47.80
3850;DHT22;1940;51.052;13.678;2023-06-14T08:32:07;24.80;50.10
3850;DHT22;1940;51.052;13.678;2023-06-14T08:34:32;24.60;50.10
3850;DHT22;1940;51.052;13.678;2023-06-14T08:36:58;25.00;49.10
3850;DHT22;1940;51.052;13.678;2023-06-14T08:39:23;24.40;49.30
3850;DHT22;1940;51.052;13.678;2023-06-14T08:41:49;23.10;51.40
3850;DHT22;1940;51.052;13.678;2023-06-14T08:44:16;22.20;53.60
3850;DHT22;1940;51.052;13.678;2023-06-14T08:46:42;22.50;51.70
3850;DHT22;1940;51.052;13.678;2023-06-14T08:49:11;22.80;51.20
3850;DHT22;1940;51.052;13.678;2023-06-14T08:51:38;23.40;51.80
3850;DHT22;1940;51.052;13.678;2023-06-14T08:54:06;24.30;48.90
3850;DHT22;1940;51.052;13.678;2023-06-14T08:56:32;24.70;49.10
3850;DHT22;1940;51.052;13.678;2023-06-14T08:58:59;24.70;48.00
3850;DHT22;1940;51.052;13.678;2023-06-14T09:01:36;24.70;47.80
3850;DHT22;1940;51.052;13.678;2023-06-14T09:04:02;24.50;47.70
3850;DHT22;1940;51.052;13.678;2023-06-14T09:06:28;24.40;48.50
3850;DHT22;1940;51.052;13.678;2023-06-14T09:08:55;24.70;47.80
3850;DHT22;1940;51.052;13.678;2023-06-14T09:11:23;25.10;47.50
3850;DHT22;1940;51.052;13.678;2023-06-14T09:13:49;25.50;47.00
3850;DHT22;1940;51.052;13.678;2023-06-14T09:16:16;25.40;46.80
3850;DHT22;1940;51.052;13.678;2023-06-14T09:18:43;25.50;46.50
3850;DHT22;1940;51.052;13.678;2023-06-14T09:21:10;26.30;46.20
3850;DHT22;1940;51.052;13.678;2023-06-14T09:23:37;26.20;46.30
3850;DHT22;1940;51.052;13.678;2023-06-14T09:26:14;26.00;47.40
3850;DHT22;1940;51.052;13.678;2023-06-14T09:28:44;26.90;46.60
3850;DHT22;1940;51.052;13.678;2023-06-14T09:31:17;27.40;45.70
3850;DHT22;1940;51.052;13.678;2023-06-14T09:33:49;27.90;45.00
3850;DHT22;1940;51.052;13.678;2023-06-14T09:36:21;27.50;44.50
3850;DHT22;1940;51.052;13.678;2023-06-14T09:39:00;27.00;45.50
3850;DHT22;1940;51.052;13.678;2023-06-14T09:41:39;26.90;45.60
3850;DHT22;1940;51.052;13.678;2023-06-14T09:44:07;26.90;45.30
3850;DHT22;1940;51.052;13.678;2023-06-14T09:46:34;27.00;45.60
3850;DHT22;1940;51.052;13.678;2023-06-14T09:49:02;26.80;47.10
3850;DHT22;1940;51.052;13.678;2023-06-14T09:51:28;27.10;45.70
3850;DHT22;1940;51.052;13.678;2023-06-14T09:53:59;27.80;45.40
3850;DHT22;1940;51.052;13.678;2023-06-14T09:56:29;28.10;44.30
3850;DHT22;1940;51.052;13.678;2023-06-14T09:58:59;28.80;42.90
3850;DHT22;1940;51.052;13.678;2023-06-14T10:01:25;29.20;43.70
3850;DHT22;1940;51.052;13.678;2023-06-14T10:03:55;29.90;43.40
3850;DHT22;1940;51.052;13.678;2023-06-14T10:06:23;30.30;42.50
3850;DHT22;1940;51.052;13.678;2023-06-14T10:08:52;29.30;43.10
3850;DHT22;1940;51.052;13.678;2023-06-14T10:11:21;29.40;43.70
3850;DHT22;1940;51.052;13.678;2023-06-14T10:13:47;29.90;42.90
3850;DHT22;1940;51.052;13.678;2023-06-14T10:16:20;30.20;42.20
3850;DHT22;1940;51.052;13.678;2023-06-14T10:18:53;30.10;41.20
3850;DHT22;1940;51.052;13.678;2023-06-14T10:21:55;28.40;43.90
3850;DHT22;1940;51.052;13.678;2023-06-14T10:24:32;26.10;47.00
3850;DHT22;1940;51.052;13.678;2023-06-14T10:26:59;24.40;49.90
3850;DHT22;1940;51.052;13.678;2023-06-14T10:29:26;24.90;49.30
3850;DHT22;1940;51.052;13.678;2023-06-14T10:31:57;25.70;49.00
3850;DHT22;1940;51.052;13.678;2023-06-14T10:34:27;26.20;48.50
3850;DHT22;1940;51.052;13.678;2023-06-14T10:37:08;26.90;47.60
3850;DHT22;1940;51.052;13.678;2023-06-14T10:39:41;26.70;46.90
3850;DHT22;1940;51.052;13.678;2023-06-14T10:42:07;25.70;49.10
3850;DHT22;1940;51.052;13.678;2023-06-14T10:44:41;26.50;49.10
3850;DHT22;1940;51.052;13.678;2023-06-14T10:47:20;27.30;46.20
3850;DHT22;1940;51.052;13.678;2023-06-14T10:49:53;27.50;46.20
3850;DHT22;1940;51.052;13.678;2023-06-14T10:52:22;27.70;46.10
3850;DHT22;1940;51.052;13.678;2023-06-14T10:55:05;26.60;48.00
3850;DHT22;1940;51.052;13.678;2023-06-14T10:57:35;25.20;49.90
3850;DHT22;1940;51.052;13.678;2023-06-14T11:00:01;24.20;51.20
3850;DHT22;1940;51.052;13.678;2023-06-14T11:02:48;24.30;51.60
3850;DHT22;1940;51.052;13.678;2023-06-14T11:05:15;23.90;52.10
3850;DHT22;1940;51.052;13.678;2023-06-14T11:12:59;23.10;54.50
3850;DHT22;1940;51.052;13.678;2023-06-14T11:15:28;22.90;53.70
3850;DHT22;1940;51.052;13.678;2023-06-14T11:17:55;22.60;55.10
3850;DHT22;1940;51.052;13.678;2023-06-14T11:20:25;22.50;56.20
3850;DHT22;1940;51.052;13.678;2023-06-14T11:22:51;22.20;57.30
3850;DHT22;1940;51.052;13.678;2023-06-14T11:25:17;21.90;56.90
3850;DHT22;1940;51.052;13.678;2023-06-14T11:27:43;21.80;57.40
3850;DHT22;1940;51.052;13.678;2023-06-14T11:30:09;21.40;58.00
3850;DHT22;1940;51.052;13.678;2023-06-14T11:32:36;21.40;58.20
3850;DHT22;1940;51.052;13.678;2023-06-14T11:35:02;21.40;58.00
3850;DHT22;1940;51.052;13.678;2023-06-14T11:37:30;21.50;57.00
3850;DHT22;1940;51.052;13.678;2023-06-14T11:39:56;21.50;56.80
3850;DHT22;1940;51.052;13.678;2023-06-14T11:42:23;21.70;57.80
3850;DHT22;1940;51.052;13.678;2023-06-14T11:44:49;21.80;57.90
3850;DHT22;1940;51.052;13.678;2023-06-14T11:47:15;21.60;58.80
3850;DHT22;1940;51.052;13.678;2023-06-14T11:49:41;21.20;59.90
3850;DHT22;1940;51.052;13.678;2023-06-14T11:52:07;21.20;60.30
3850;DHT22;1940;51.052;13.678;2023-06-14T11:54:33;21.00;60.80
3850;DHT22;1940;51.052;13.678;2023-06-14T11:56:58;20.90;60.50
3850;DHT22;1940;51.052;13.678;2023-06-14T11:59:24;20.90;61.00
3850;DHT22;1940;51.052;13.678;2023-06-14T12:01:52;20.90;61.10
3850;DHT22;1940;51.052;13.678;2023-06-14T12:04:28;20.70;61.90
3850;DHT22;1940;51.052;13.678;2023-06-14T12:06:54;20.70;61.90
3850;DHT22;1940;51.052;13.678;2023-06-14T12:09:21;20.70;62.30
3850;DHT22;1940;51.052;13.678;2023-06-14T12:11:59;20.80;62.40
3850;DHT22;1940;51.052;13.678;2023-06-14T12:14:30;21.00;61.30
3850;DHT22;1940;51.052;13.678;2023-06-14T12:17:06;21.00;61.90
3850;DHT22;1940;51.052;13.678;2023-06-14T12:19:45;21.20;60.40
3850;DHT22;1940;51.052;13.678;2023-06-14T12:22:12;21.20;59.80
3850;DHT22;1940;51.052;13.678;2023-06-14T12:24:38;21.20;60.60
3850;DHT22;1940;51.052;13.678;2023-06-14T12:27:04;21.50;60.00
3850;DHT22;1940;51.052;13.678;2023-06-14T12:29:31;21.60;59.90
3850;DHT22;1940;51.052;13.678;2023-06-14T12:31:56;22.00;59.20
3850;DHT22;1940;51.052;13.678;2023-06-14T12:34:25;22.10;59.90
3850;DHT22;1940;51.052;13.678;2023-06-14T12:36:52;22.00;60.30
3850;DHT22;1940;51.052;13.678;2023-06-14T12:39:18;21.50;60.70
3850;DHT22;1940;51.052;13.678;2023-06-14T12:41:44;21.20;61.80
3850;DHT22;1940;51.052;13.678;2023-06-14T12:44:11;21.10;63.00
3850;DHT22;1940;51.052;13.678;2023-06-14T12:46:36;21.20;62.40
3850;DHT22;1940;51.052;13.678;2023-06-14T12:49:03;21.20;61.90
3850;DHT22;1940;51.052;13.678;2023-06-14T12:51:28;21.20;62.50
3850;DHT22;1940;51.052;13.678;2023-06-14T12:53:54;21.50;61.40
3850;DHT22;1940;51.052;13.678;2023-06-14T12:56:19;21.50;62.10
3850;DHT22;1940;51.052;13.678;2023-06-14T12:58:47;21.50;61.70
3850;DHT22;1940;51.052;13.678;2023-06-14T13:01:13;21.40;61.00
3850;DHT22;1940;51.052;13.678;2023-06-14T13:03:38;21.40;62.20
3850;DHT22;1940;51.052;13.678;2023-06-14T13:06:04;21.50;61.70
3850;DHT22;1940;51.052;13.678;2023-06-14T13:08:29;21.60;61.10
3850;DHT22;1940;51.052;13.678;2023-06-14T13:10:55;21.70;60.80
3850;DHT22;1940;51.052;13.678;2023-06-14T13:13:21;21.80;61.40
3850;DHT22;1940;51.052;13.678;2023-06-14T13:15:47;21.90;60.20
3850;DHT22;1940;51.052;13.678;2023-06-14T13:18:14;22.10;60.60
3850;DHT22;1940;51.052;13.678;2023-06-14T13:20:40;22.30;60.20
3850;DHT22;1940;51.052;13.678;2023-06-14T13:23:05;22.60;59.80
3850;DHT22;1940;51.052;13.678;2023-06-14T13:25:33;22.80;59.50
3850;DHT22;1940;51.052;13.678;2023-06-14T13:27:59;22.70;58.00
3850;DHT22;1940;51.052;13.678;2023-06-14T13:30:25;22.70;58.30
3850;DHT22;1940;51.052;13.678;2023-06-14T13:32:50;22.90;57.00
3850;DHT22;1940;51.052;13.678;2023-06-14T13:35:17;22.50;58.90
3850;DHT22;1940;51.052;13.678;2023-06-14T13:37:43;21.90;60.80
3850;DHT22;1940;51.052;13.678;2023-06-14T13:40:09;21.20;61.90
3850;DHT22;1940;51.052;13.678;2023-06-14T13:42:35;20.80;62.60
3850;DHT22;1940;51.052;13.678;2023-06-14T13:45:01;20.50;63.40
3850;DHT22;1940;51.052;13.678;2023-06-14T13:47:27;20.40;63.50
3850;DHT22;1940;51.052;13.678;2023-06-14T13:49:52;20.60;63.60
3850;DHT22;1940;51.052;13.678;2023-06-14T13:52:18;21.00;61.20
3850;DHT22;1940;51.052;13.678;2023-06-14T13:54:43;21.20;60.60
3850;DHT22;1940;51.052;13.678;2023-06-14T13:57:09;21.50;59.00
3850;DHT22;1940;51.052;13.678;2023-06-14T13:59:38;21.60;59.20
3850;DHT22;1940;51.052;13.678;2023-06-14T14:02:04;21.90;58.70
3850;DHT22;1940;51.052;13.678;2023-06-14T14:04:30;22.20;57.80
3850;DHT22;1940;51.052;13.678;2023-06-14T14:06:56;22.50;58.00
3850;DHT22;1940;51.052;13.678;2023-06-14T14:09:21;22.60;57.40
3850;DHT22;1940;51.052;13.678;2023-06-14T14:11:47;22.70;58.30
3850;DHT22;1940;51.052;13.678;2023-06-14T14:14:14;22.60;58.30
3850;DHT22;1940;51.052;13.678;2023-06-14T14:16:39;22.40;58.50
3850;DHT22;1940;51.052;13.678;2023-06-14T14:19:05;22.00;59.20
3850;DHT22;1940;51.052;13.678;2023-06-14T14:21:32;21.80;60.00
3850;DHT22;1940;51.052;13.678;2023-06-14T14:23:58;21.50;59.90
3850;DHT22;1940;51.052;13.678;2023-06-14T14:26:23;21.40;59.90
3850;DHT22;1940;51.052;13.678;2023-06-14T14:28:50;21.40;59.70
3850;DHT22;1940;51.052;13.678;2023-06-14T14:31:16;21.60;58.10
3850;DHT22;1940;51.052;13.678;2023-06-14T14:33:42;21.60;57.80
3850;DHT22;1940;51.052;13.678;2023-06-14T14:36:07;21.90;56.60
3850;DHT22;1940;51.052;13.678;2023-06-14T14:38:33;22.20;56.80
3850;DHT22;1940;51.052;13.678;2023-06-14T14:40:58;22.50;56.70
3850;DHT22;1940;51.052;13.678;2023-06-14T14:43:24;22.70;56.20
3850;DHT22;1940;51.052;13.678;2023-06-14T14:45:50;22.70;56.60
3850;DHT22;1940;51.052;13.678;2023-06-14T14:48:15;22.70;56.10
3850;DHT22;1940;51.052;13.678;2023-06-14T14:50:40;22.70;54.50
3850;DHT22;1940;51.052;13.678;2023-06-14T14:53:06;22.80;54.90
3850;DHT22;1940;51.052;13.678;2023-06-14T14:55:32;22.80;55.20
3850;DHT22;1940;51.052;13.678;2023-06-14T14:58:00;22.60;55.80
3850;DHT22;1940;51.052;13.678;2023-06-14T15:00:26;22.40;55.70
3850;DHT22;1940;51.052;13.678;2023-06-14T15:02:51;22.40;56.00
3850;DHT22;1940;51.052;13.678;2023-06-14T15:05:17;22.40;56.10
3850;DHT22;1940;51.052;13.678;2023-06-14T15:07:42;22.40;56.60
3850;DHT22;1940;51.052;13.678;2023-06-14T15:10:09;22.50;56.60
3850;DHT22;1940;51.052;13.678;2023-06-14T15:12:35;22.60;56.60
3850;DHT22;1940;51.052;13.678;2023-06-14T15:15:01;22.90;57.70
3850;DHT22;1940;51.052;13.678;2023-06-14T15:17:27;22.90;55.20
3850;DHT22;1940;51.052;13.678;2023-06-14T15:19:53;23.00;54.30
3850;DHT22;1940;51.052;13.678;2023-06-14T15:22:18;22.80;52.70
3850;DHT22;1940;51.052;13.678;2023-06-14T15:24:44;22.70;50.70
3850;DHT22;1940;51.052;13.678;2023-06-14T15:27:11;22.70;51.20
3850;DHT22;1940;51.052;13.678;2023-06-14T15:29:38;22.90;51.00
3850;DHT22;1940;51.052;13.678;2023-06-14T15:32:05;23.00;51.90
3850;DHT22;1940;51.052;13.678;2023-06-14T15:34:31;23.00;52.00
3850;DHT22;1940;51.052;13.678;2023-06-14T15:36:58;23.10;52.60
3850;DHT22;1940;51.052;13.678;2023-06-14T15:39:24;23.00;52.60
3850;DHT22;1940;51.052;13.678;2023-06-14T15:41:50;22.90;52.80
3850;DHT22;1940;51.052;13.678;2023-06-14T15:44:17;23.00;53.20
3850;DHT22;1940;51.052;13.678;2023-06-14T15:46:43;23.00;52.50
3850;DHT22;1940;51.052;13.678;2023-06-14T15:49:09;22.60;53.70